Time;durP1;ratioP1;P1;durP2;ratioP2;P2;SDS_P1;SDS_P2;PMS_P1;PMS_P2;Temp;Humidity;BMP_temperature;BMP_pressure;BME280_temperature;BME280_humidity;BME280_pressure;Samples;Min_cycle;Max_cycle;Signal;HPM_P1;HPM_P2
2024/04/18 00:01:50;;;;;;;14.7;7.2;;;;;;;3.38;86.2;97860;;;;
2024/04/18 00:12:47;;;;;;;16.1;8.5;;;;;;;3.14;86.34;97861.666666667;;;;
2024/04/18 00:23:47;;;;;;;16.1;8.5;;;;;;;3;87.02;97863.333333333;;;;
2024/04/18 00:33:47;;;;;;;16.1;8.5;;;;;;;3.11;87.92;97868.333333333;;;;
2024/04/18 00:43:47;;;;;;;21.1;10.1;;;;;;;3.29;88.89;97870;;;;
2024/04/18 00:54:47;;;;;;;21.1;10.1;;;;;;;3.48;89.69;97870;;;;
2024/04/18 01:05:47;;;;;;;21.1;10.1;;;;;;;3.69;89.3;97873.333333333;;;;
2024/04/18 01:15:47;;;;;;;23.5;10.8;;;;;;;3.89;89.17;97878.333333333;;;;
2024/04/18 01:26:47;;;;;;;23.5;10.8;;;;;;;4.01;88.74;97876.666666667;;;;
2024/04/18 01:37:47;;;;;;;23.5;10.8;;;;;;;4.08;88.61;97873.333333333;;;;
2024/04/18 01:47:47;;;;;;;20.3;11.4;;;;;;;4.12;87.84;97876.666666667;;;;
2024/04/18 01:58:47;;;;;;;20.3;11.4;;;;;;;3.92;87.45;97880;;;;
2024/04/18 02:09:47;;;;;;;20.3;11.4;;;;;;;3.97;87.18;97878.333333333;;;;
2024/04/18 02:20:47;;;;;;;19.6;10.9;;;;;;;3.96;86.89;97880;;;;
2024/04/18 02:30:47;;;;;;;19.6;10.9;;;;;;;3.97;87.15;97885;;;;
2024/04/18 02:41:47;;;;;;;21;10.7;;;;;;;3.97;87.45;97883.333333333;;;;
2024/04/18 02:51:47;;;;;;;21;10.7;;;;;;;3.82;87.02;97880;;;;
2024/04/18 03:02:47;;;;;;;21;10.7;;;;;;;3.35;86.86;97875;;;;
2024/04/18 03:12:47;;;;;;;21.4;12.2;;;;;;;3.13;87.38;97871.666666667;;;;
2024/04/18 03:22:47;;;;;;;21.4;12.2;;;;;;;2.91;86.64;97866.666666667;;;;
2024/04/18 03:32:47;;;;;;;21.4;12.2;;;;;;;2.87;87.47;97880;;;;
2024/04/18 03:42:47;;;;;;;24.8;13.3;;;;;;;2.97;88.13;97881.666666667;;;;
2024/04/18 03:52:47;;;;;;;24.8;13.3;;;;;;;3.16;88.87;97888.333333333;;;;
2024/04/18 04:02:47;;;;;;;24.8;13.3;;;;;;;3.31;89.7;97891.666666667;;;;
2024/04/18 04:13:47;;;;;;;26.6;16.7;;;;;;;3.56;89.71;97903.333333333;;;;
2024/04/18 04:23:47;;;;;;;26.6;16.7;;;;;;;3.77;89.37;97911.666666667;;;;
2024/04/18 04:34:47;;;;;;;26.6;16.7;;;;;;;3.91;88.88;97930;;;;
2024/04/18 04:44:47;;;;;;;40.4;20.4;;;;;;;3.9;89.11;97935;;;;
2024/04/18 04:54:47;;;;;;;40.4;20.4;;;;;;;4.19;88.94;97941.666666667;;;;
2024/04/18 05:05:47;;;;;;;40.4;20.4;;;;;;;4.41;87.75;97960;;;;
2024/04/18 05:15:48;;;;;;;40.4;21.2;;;;;;;4.64;87.85;97970;;;;
2024/04/18 05:26:49;;;;;;;40.4;21.2;;;;;;;5.07;86.35;97980;;;;
2024/04/18 05:36:47;;;;;;;40.4;21.2;;;;;;;5.41;86.43;97988.333333333;;;;
2024/04/18 05:47:47;;;;;;;43.2;22;;;;;;;5.63;84.33;97993.333333333;;;;
2024/04/18 05:57:47;;;;;;;43.2;22;;;;;;;5.9;83.77;97990;;;;
2024/04/18 06:07:47;;;;;;;43.2;22;;;;;;;6.58;80.97;97993.333333333;;;;
2024/04/18 06:17:47;;;;;;;32.1;17.5;;;;;;;6.79;81.34;97991.666666667;;;;
2024/04/18 06:28:47;;;;;;;32.1;17.5;;;;;;;7.95;78.05;98000;;;;
2024/04/18 06:39:47;;;;;;;32.1;17.5;;;;;;;8.59;76.99;98008.333333333;;;;
2024/04/18 06:50:47;;;;;;;33.4;20.5;;;;;;;8.38;74.76;98013.333333333;;;;
2024/04/18 07:00:47;;;;;;;33.4;20.5;;;;;;;9.02;73.69;98015;;;;
2024/04/18 07:11:47;;;;;;;35.1;21;;;;;;;9.12;71.08;98015;;;;
2024/04/18 07:21:47;;;;;;;35.1;21;;;;;;;9.54;71.86;98010;;;;
2024/04/18 07:32:47;;;;;;;35.1;21;;;;;;;10.04;68.14;98011.666666667;;;;
2024/04/18 07:43:47;;;;;;;29.7;20.3;;;;;;;10.32;64.31;98003.333333333;;;;
2024/04/18 07:53:47;;;;;;;29.7;20.3;;;;;;;10.52;67.46;98010;;;;
2024/04/18 08:04:47;;;;;;;29.7;20.3;;;;;;;9.31;70.06;98010;;;;
2024/04/18 08:15:47;;;;;;;29.5;20;;;;;;;8.86;71.21;97986;;;;
2024/04/18 08:26:47;;;;;;;29.5;20;;;;;;;9.19;70.84;98008.333333333;;;;
2024/04/18 08:37:48;;;;;;;29.5;20;;;;;;;9.23;70.8;98005;;;;
2024/04/18 08:47:47;;;;;;;24.6;15.5;;;;;;;8.56;71.59;98008.333333333;;;;
2024/04/18 08:57:47;;;;;;;24.6;15.5;;;;;;;7.97;72.61;98023.333333333;;;;
2024/04/18 09:08:47;;;;;;;24.6;15.5;;;;;;;7.75;73.4;98028.333333333;;;;
2024/04/18 09:18:47;;;;;;;20.5;12.9;;;;;;;8.29;74.2;98023.333333333;;;;
2024/04/18 09:28:47;;;;;;;20.5;12.9;;;;;;;8.76;70.47;98015;;;;
2024/04/18 09:39:48;;;;;;;20.5;12.9;;;;;;;9.28;68.26;98006.666666667;;;;
2024/04/18 09:49:47;;;;;;;20.9;11.2;;;;;;;9.98;67.41;97996.666666667;;;;
2024/04/18 09:59:47;;;;;;;20.9;11.2;;;;;;;11.51;63.15;97985;;;;
2024/04/18 10:10:47;;;;;;;17.6;9.9;;;;;;;11.06;59.44;97988.333333333;;;;
2024/04/18 10:21:47;;;;;;;17.6;9.9;;;;;;;9.48;63.3;98010;;;;
2024/04/18 10:31:47;;;;;;;17.6;9.9;;;;;;;8.44;69.81;98041.666666667;;;;
2024/04/18 10:42:47;;;;;;;11.4;6.5;;;;;;;8.56;73.59;98025;;;;
2024/04/18 10:53:47;;;;;;;11.4;6.5;;;;;;;9.42;75.26;98021.666666667;;;;
2024/04/18 11:03:47;;;;;;;11.4;6.5;;;;;;;9.55;69.99;98023.333333333;;;;
2024/04/18 11:14:48;;;;;;;11.2;8.3;;;;;;;9.57;62.83;98045;;;;
2024/04/18 11:24:47;;;;;;;11.2;8.3;;;;;;;8.92;65.25;98038.333333333;;;;
2024/04/18 11:35:47;;;;;;;11.2;8.3;;;;;;;9.93;65.56;98038.333333333;;;;
2024/04/18 11:45:47;;;;;;;4.6;2.3;;;;;;;9.7;63.25;98058.333333333;;;;
2024/04/18 11:55:47;;;;;;;4.6;2.3;;;;;;;8.94;66.74;98061.666666667;;;;
2024/04/18 12:06:47;;;;;;;4.6;2.3;;;;;;;7.59;74.66;98068.333333333;;;;
2024/04/18 12:16:47;;;;;;;7.4;3.4;;;;;;;7.76;76.59;98070;;;;
2024/04/18 12:26:47;;;;;;;7.4;3.4;;;;;;;8.37;74;98070;;;;
2024/04/18 12:36:47;;;;;;;7.4;3.4;;;;;;;9.93;69.65;98071.666666667;;;;
2024/04/18 12:46:47;;;;;;;7;3.8;;;;;;;10.21;64.62;98075;;;;
2024/04/18 12:57:47;;;;;;;7;3.8;;;;;;;10.18;64.94;98076.666666667;;;;
2024/04/18 13:07:47;;;;;;;7;3.8;;;;;;;10.78;60.65;98080;;;;
2024/04/18 13:18:47;;;;;;;6.2;4;;;;;;;10.83;58.67;98076.666666667;;;;
2024/04/18 13:28:48;;;;;;;6.2;4;;;;;;;9.69;62.43;98078.333333333;;;;
2024/04/18 13:39:50;;;;;;;7;3.7;;;;;;;9.85;62.14;98078.333333333;;;;
2024/04/18 13:50:48;;;;;;;7;3.7;;;;;;;11.11;61.15;98076.666666667;;;;
2024/04/18 14:00:47;;;;;;;7;3.7;;;;;;;11.31;54.72;98070;;;;
2024/04/18 14:11:47;;;;;;;5.2;2.6;;;;;;;12.24;54.75;98056.666666667;;;;
2024/04/18 14:22:47;;;;;;;5.2;2.6;;;;;;;11.4;53.19;98053.333333333;;;;
2024/04/18 14:32:47;;;;;;;5.2;2.6;;;;;;;10.61;55.53;98051.666666667;;;;
2024/04/18 14:43:47;;;;;;;5.7;2.6;;;;;;;10.09;57.49;98065;;;;
2024/04/18 14:53:47;;;;;;;5.7;2.6;;;;;;;10.16;57.94;98073.333333333;;;;
2024/04/18 15:03:47;;;;;;;5.7;2.6;;;;;;;9.84;57.47;98081.666666667;;;;
2024/04/18 15:14:47;;;;;;;5.9;3.5;;;;;;;8.4;66.43;98115;;;;
2024/04/18 15:24:48;;;;;;;5.9;3.5;;;;;;;6.91;73.94;98130;;;;
2024/04/18 15:35:47;;;;;;;5.9;3.5;;;;;;;6.63;76.21;98143.333333333;;;;
2024/04/18 15:45:47;;;;;;;7.5;3;;;;;;;6.52;76.57;98156.666666667;;;;
2024/04/18 15:56:47;;;;;;;7.5;3;;;;;;;6.57;74.96;98138.333333333;;;;
2024/04/18 16:06:47;;;;;;;7.5;3;;;;;;;6.96;78.38;98148.333333333;;;;
2024/04/18 16:16:47;;;;;;;5.9;2.4;;;;;;;6.99;77.43;98148.333333333;;;;
2024/04/18 16:27:47;;;;;;;5.9;2.4;;;;;;;7.02;77.41;98158.333333333;;;;
2024/04/18 16:37:47;;;;;;;5.9;2.4;;;;;;;6.82;79.1;98170;;;;
2024/04/18 16:48:47;;;;;;;9.4;3.9;;;;;;;6.68;79.43;98175;;;;
2024/04/18 16:59:47;;;;;;;9.4;3.9;;;;;;;6.49;80.51;98190;;;;
2024/04/18 17:09:47;;;;;;;9.5;4.9;;;;;;;6.51;80;98203.333333333;;;;
2024/04/18 17:19:47;;;;;;;9.5;4.9;;;;;;;6.43;80.71;98215;;;;
2024/04/18 17:29:47;;;;;;;9.5;4.9;;;;;;;6.16;80.26;98208.333333333;;;;
2024/04/18 17:40:47;;;;;;;9.9;5.8;;;;;;;6.17;80.61;98210;;;;
2024/04/18 17:50:47;;;;;;;9.9;5.8;;;;;;;6.15;81.38;98218.333333333;;;;
2024/04/18 18:01:47;;;;;;;9.9;5.8;;;;;;;5.96;82;98216.666666667;;;;
2024/04/18 18:12:47;;;;;;;13.8;6.5;;;;;;;5.88;81.3;98236.666666667;;;;
2024/04/18 18:23:47;;;;;;;13.8;6.5;;;;;;;5.7;80.44;98250;;;;
2024/04/18 18:34:47;;;;;;;13.8;6.5;;;;;;;5.42;80.15;98250;;;;
2024/04/18 18:44:47;;;;;;;13.5;8.1;;;;;;;5.01;80.4;98268.333333333;;;;
2024/04/18 18:55:49;;;;;;;13.5;8.1;;;;;;;4.64;79.94;98278.333333333;;;;
2024/04/18 19:05:49;;;;;;;13.5;8.1;;;;;;;4.41;81.28;98286.666666667;;;;
2024/04/18 19:15:47;;;;;;;13.2;6.9;;;;;;;4.4;82.59;98290;;;;
2024/04/18 19:26:48;;;;;;;13.2;6.9;;;;;;;4.48;82.55;98298.333333333;;;;
2024/04/18 19:36:47;;;;;;;13.2;6.9;;;;;;;4.43;81.49;98306.666666667;;;;
2024/04/18 19:47:47;;;;;;;15.4;9.4;;;;;;;4.51;81.65;98305;;;;
2024/04/18 19:57:49;;;;;;;15.4;9.4;;;;;;;4.51;81.77;98316.666666667;;;;
2024/04/18 20:08:47;;;;;;;15.4;9.4;;;;;;;4.52;81.89;98325;;;;
2024/04/18 20:19:47;;;;;;;16.4;9.4;;;;;;;4.45;81.94;98328.333333333;;;;
2024/04/18 20:29:47;;;;;;;16.4;9.4;;;;;;;4.3;81.84;98338.333333333;;;;
2024/04/18 20:39:47;;;;;;;7.5;5.2;;;;;;;4.26;80.54;98353.333333333;;;;
2024/04/18 20:50:47;;;;;;;7.5;5.2;;;;;;;4.08;80.74;98361.666666667;;;;
2024/04/18 21:00:47;;;;;;;7.5;5.2;;;;;;;4.12;81.19;98351.666666667;;;;
2024/04/18 21:11:47;;;;;;;4.4;2.1;;;;;;;4.18;81.33;98355;;;;
2024/04/18 21:21:47;;;;;;;4.4;2.1;;;;;;;4.18;81.63;98350;;;;
2024/04/18 21:32:47;;;;;;;4.4;2.1;;;;;;;4.29;81.71;98343.333333333;;;;
2024/04/18 21:43:47;;;;;;;10.7;5;;;;;;;4.21;83.07;98345;;;;
2024/04/18 21:53:48;;;;;;;10.7;5;;;;;;;4.13;83.91;98345;;;;
2024/04/18 22:04:47;;;;;;;10.7;5;;;;;;;4.16;84.64;98351.666666667;;;;
2024/04/18 22:14:47;;;;;;;11.5;6.9;;;;;;;4.26;84.44;98356.666666667;;;;
2024/04/18 22:24:48;;;;;;;11.5;6.9;;;;;;;4.34;84.14;98358.333333333;;;;
2024/04/18 22:35:47;;;;;;;11.5;6.9;;;;;;;4.18;84.03;98353.333333333;;;;
2024/04/18 22:46:47;;;;;;;15.1;7.6;;;;;;;4.23;83.89;98360;;;;
2024/04/18 22:56:47;;;;;;;15.1;7.6;;;;;;;4.15;83.97;98358.333333333;;;;
2024/04/18 23:06:47;;;;;;;15.1;7.6;;;;;;;4.06;84;98356.666666667;;;;
2024/04/18 23:16:47;;;;;;;11.9;7.6;;;;;;;3.93;84.52;98360;;;;
2024/04/18 23:27:48;;;;;;;11.9;7.6;;;;;;;4.09;84.23;98355;;;;
2024/04/18 23:38:47;;;;;;;13.7;7.4;;;;;;;4.05;83.98;98355;;;;
2024/04/18 23:49:48;;;;;;;13.7;7.4;;;;;;;4;83.92;98350;;;;
